Seaexpressii — HO4619 — position and weather

sailwx.info

Track history (hours):
 
Tides and Currents Weather Stations Pressure Air Temp Water Temp Dewpoint Dewpoint Depression Visibility Wind Speed Wind Dir Waves Ship Positions

Seaexpressii

Last reported at 2016-Apr-30 14:19 UTC. Time now 2016-Apr-30 15:05 UTC.
Position N 26°04' W 080°08'.

Length 37 m; draft 2.2 m.

Type: Cargo ship. MMSI: 356449000.

Date/timePositionNaut miles runAvg speedWind from/ knotsBaromVisibWave heightAir tempDewpointWater temp
2016-Apr-30 14:19N 26°04' W 080°08'0 0.0
2016-Apr-30 13:25N 26°04' W 080°08'0 0.0
2016-Apr-30 12:22N 26°04' W 080°08'0 0.0
2016-Apr-30 11:25N 26°04' W 080°08'0 0.0
2016-Apr-30 10:28N 26°04' W 080°08'0 0.0
2016-Apr-30 09:28N 26°04' W 080°08'0 0.0
2016-Apr-30 08:28N 26°04' W 080°08'0 0.0
2016-Apr-30 07:31N 26°04' W 080°08'0 0.0
2016-Apr-30 06:31N 26°04' W 080°08'0 0.0
2016-Apr-30 05:28N 26°04' W 080°08'0 0.0
2016-Apr-30 04:31N 26°04' W 080°08'0 0.0
2016-Apr-30 03:19N 26°04' W 080°08'0 0.1
2016-Apr-30 02:31N 26°04' W 080°08'0 0.0
2016-Apr-30 01:31N 26°04' W 080°08'0 0.0
2016-Apr-30 00:19N 26°04' W 080°08'0 0.0
2016-Apr-29 23:25N 26°04' W 080°08'0 0.0
2016-Apr-29 22:25N 26°04' W 080°08'0 0.0
2016-Apr-29 21:25N 26°04' W 080°08'0 0.0
2016-Apr-29 20:28N 26°04' W 080°08'0 0.0
2016-Apr-29 19:28N 26°04' W 080°08'0 0.0
2016-Apr-29 18:10N 26°04' W 080°08'0 0.0
2016-Apr-29 17:28N 26°04' W 080°08'0 0.0
2016-Apr-29 15:28N 26°04' W 080°08'0 0.0
2016-Apr-29 00:31N 26°04' W 080°08'0 0.0
2016-Apr-28 23:33N 26°04' W 080°08'2 2.2
2016-Apr-28 22:33N 26°06' W 080°07'10 9.8
2016-Apr-28 21:33N 26°04' W 079°56'9 9.4
2016-Apr-28 20:33N 26°03' W 079°46'10 9.5
2016-Apr-28 19:33N 26°03' W 079°35'9 0.6
2016-Apr-28 05:17N 26°05' W 079°44'7 9.0
2016-Apr-28 04:33N 26°05' W 079°52'9 9.2
2016-Apr-28 03:33N 26°04' W 080°02'5 5.5
2016-Apr-28 02:33N 26°04' W 080°08'0 0.0
2016-Apr-28 01:33N 26°04' W 080°08'0 0.0
2016-Apr-28 00:33N 26°04' W 080°08'0 0.0
2016-Apr-27 23:33N 26°04' W 080°08'0 0.0
2016-Apr-27 22:33N 26°04' W 080°08'5 4.7
2016-Apr-27 21:33N 26°04' W 080°03'1110.6
2016-Apr-27 20:33N 26°02' W 079°51'1110.6
2016-Apr-27 19:33N 25°59' W 079°40'  
2016-Apr-24 04:24N 25°58' W 079°37'7 8.2
2016-Apr-24 03:33N 25°60' W 079°44'8 8.1
2016-Apr-24 02:33N 26°02' W 079°53'9 8.9
2016-Apr-24 01:33N 26°05' W 080°03'5 4.8
2016-Apr-24 00:33N 26°04' W 080°08'0 0.0
2016-Apr-23 23:33N 26°04' W 080°08'0 0.0
2016-Apr-23 22:33N 26°04' W 080°08'0 0.1
2016-Apr-23 21:33N 26°04' W 080°08'0 0.0
2016-Apr-23 20:32N 26°04' W 080°08'0 0.0
2016-Apr-23 19:33N 26°04' W 080°08'0 0.0
2016-Apr-23 18:33N 26°04' W 080°08'0 0.0
2016-Apr-23 17:33N 26°04' W 080°08'0 0.0
2016-Apr-23 16:33N 26°04' W 080°08'0 0.0
2016-Apr-23 15:33N 26°04' W 080°08'0 0.0
2016-Apr-23 14:33N 26°04' W 080°08'0 0.1
2016-Apr-23 13:33N 26°04' W 080°08'0 0.0
2016-Apr-23 12:33N 26°04' W 080°08'1 0.8
2016-Apr-23 11:33N 26°04' W 080°07'7 6.5
2016-Apr-23 10:33N 26°03' W 079°60'8 7.9
2016-Apr-23 09:33N 25°59' W 079°52'8 7.6
2016-Apr-23 08:33N 25°55' W 079°45'7 6.5
2016-Apr-23 07:33N 25°52' W 079°38'3 0.1
2016-Apr-22 09:09N 25°51' W 079°35'4 6.5
2016-Apr-22 08:32N 25°54' W 079°39'6 6.5
2016-Apr-22 07:33N 25°57' W 079°45'7 6.7
2016-Apr-22 06:33N 25°59' W 079°52'8 7.6
2016-Apr-22 05:33N 26°03' W 079°60'7 6.8
2016-Apr-22 04:33N 26°05' W 080°07'1 1.3
2016-Apr-22 03:33N 26°04' W 080°08'0 0.0
2016-Apr-22 02:33N 26°04' W 080°08'0 0.0
2016-Apr-22 01:33N 26°04' W 080°08'0 0.0
2016-Apr-22 00:33N 26°04' W 080°08'0 0.0
2016-Apr-21 23:33N 26°04' W 080°08'3 3.4
2016-Apr-21 22:33N 26°05' W 080°04'1010.3
2016-Apr-21 21:33N 26°02' W 079°54'1110.7
2016-Apr-21 20:33N 25°59' W 079°42'1110.6
2016-Apr-21 19:33N 25°56' W 079°31'  
Track history (hours):
 
Tides and Currents Weather Stations Pressure Air Temp Water Temp Dewpoint Dewpoint Depression Visibility Wind Speed Wind Dir Waves Ship Positions

Seaexpressii

Last reported at 2016-Apr-30 14:19 UTC. Time now 2016-Apr-30 15:05 UTC.
Position N 26°04' W 080°08'.

Length 37 m; draft 2.2 m.

Type: Cargo ship. MMSI: 356449000.

Date/timePositionNaut miles runAvg speedWind from/ knotsBaromVisibWave heightAir tempDewpointWater temp
2016-Apr-30 14:19N 26°04' W 080°08'0 0.0
2016-Apr-30 13:25N 26°04' W 080°08'0 0.0
2016-Apr-30 12:22N 26°04' W 080°08'0 0.0
2016-Apr-30 11:25N 26°04' W 080°08'0 0.0
2016-Apr-30 10:28N 26°04' W 080°08'0 0.0
2016-Apr-30 09:28N 26°04' W 080°08'0 0.0
2016-Apr-30 08:28N 26°04' W 080°08'0 0.0
2016-Apr-30 07:31N 26°04' W 080°08'0 0.0
2016-Apr-30 06:31N 26°04' W 080°08'0 0.0
2016-Apr-30 05:28N 26°04' W 080°08'0 0.0
2016-Apr-30 04:31N 26°04' W 080°08'0 0.0
2016-Apr-30 03:19N 26°04' W 080°08'0 0.1
2016-Apr-30 02:31N 26°04' W 080°08'0 0.0
2016-Apr-30 01:31N 26°04' W 080°08'0 0.0
2016-Apr-30 00:19N 26°04' W 080°08'0 0.0
2016-Apr-29 23:25N 26°04' W 080°08'0 0.0
2016-Apr-29 22:25N 26°04' W 080°08'0 0.0
2016-Apr-29 21:25N 26°04' W 080°08'0 0.0
2016-Apr-29 20:28N 26°04' W 080°08'0 0.0
2016-Apr-29 19:28N 26°04' W 080°08'0 0.0
2016-Apr-29 18:10N 26°04' W 080°08'0 0.0
2016-Apr-29 17:28N 26°04' W 080°08'0 0.0
2016-Apr-29 15:28N 26°04' W 080°08'0 0.0
2016-Apr-29 00:31N 26°04' W 080°08'0 0.0
2016-Apr-28 23:33N 26°04' W 080°08'2 2.2
2016-Apr-28 22:33N 26°06' W 080°07'10 9.8
2016-Apr-28 21:33N 26°04' W 079°56'9 9.4
2016-Apr-28 20:33N 26°03' W 079°46'10 9.5
2016-Apr-28 19:33N 26°03' W 079°35'9 0.6
2016-Apr-28 05:17N 26°05' W 079°44'7 9.0
2016-Apr-28 04:33N 26°05' W 079°52'9 9.2
2016-Apr-28 03:33N 26°04' W 080°02'5 5.5
2016-Apr-28 02:33N 26°04' W 080°08'0 0.0
2016-Apr-28 01:33N 26°04' W 080°08'0 0.0
2016-Apr-28 00:33N 26°04' W 080°08'0 0.0
2016-Apr-27 23:33N 26°04' W 080°08'0 0.0
2016-Apr-27 22:33N 26°04' W 080°08'5 4.7
2016-Apr-27 21:33N 26°04' W 080°03'1110.6
2016-Apr-27 20:33N 26°02' W 079°51'1110.6
2016-Apr-27 19:33N 25°59' W 079°40'  
2016-Apr-24 04:24N 25°58' W 079°37'7 8.2
2016-Apr-24 03:33N 25°60' W 079°44'8 8.1
2016-Apr-24 02:33N 26°02' W 079°53'9 8.9
2016-Apr-24 01:33N 26°05' W 080°03'5 4.8
2016-Apr-24 00:33N 26°04' W 080°08'0 0.0
2016-Apr-23 23:33N 26°04' W 080°08'0 0.0
2016-Apr-23 22:33N 26°04' W 080°08'0 0.1
2016-Apr-23 21:33N 26°04' W 080°08'0 0.0
2016-Apr-23 20:32N 26°04' W 080°08'0 0.0
2016-Apr-23 19:33N 26°04' W 080°08'0 0.0
2016-Apr-23 18:33N 26°04' W 080°08'0 0.0
2016-Apr-23 17:33N 26°04' W 080°08'0 0.0
2016-Apr-23 16:33N 26°04' W 080°08'0 0.0
2016-Apr-23 15:33N 26°04' W 080°08'0 0.0
2016-Apr-23 14:33N 26°04' W 080°08'0 0.1
2016-Apr-23 13:33N 26°04' W 080°08'0 0.0
2016-Apr-23 12:33N 26°04' W 080°08'1 0.8
2016-Apr-23 11:33N 26°04' W 080°07'7 6.5
2016-Apr-23 10:33N 26°03' W 079°60'8 7.9
2016-Apr-23 09:33N 25°59' W 079°52'8 7.6
2016-Apr-23 08:33N 25°55' W 079°45'7 6.5
2016-Apr-23 07:33N 25°52' W 079°38'3 0.1
2016-Apr-22 09:09N 25°51' W 079°35'4 6.5
2016-Apr-22 08:32N 25°54' W 079°39'6 6.5
2016-Apr-22 07:33N 25°57' W 079°45'7 6.7
2016-Apr-22 06:33N 25°59' W 079°52'8 7.6
2016-Apr-22 05:33N 26°03' W 079°60'7 6.8
2016-Apr-22 04:33N 26°05' W 080°07'1 1.3
2016-Apr-22 03:33N 26°04' W 080°08'0 0.0
2016-Apr-22 02:33N 26°04' W 080°08'0 0.0
2016-Apr-22 01:33N 26°04' W 080°08'0 0.0
2016-Apr-22 00:33N 26°04' W 080°08'0 0.0
2016-Apr-21 23:33N 26°04' W 080°08'3 3.4
2016-Apr-21 22:33N 26°05' W 080°04'1010.3
2016-Apr-21 21:33N 26°02' W 079°54'1110.7
2016-Apr-21 20:33N 25°59' W 079°42'1110.6
2016-Apr-21 19:33N 25°56' W 079°31'  

Dump ship's entire track history